sensor_id;sensor_type;location;lat;lon;timestamp;pressure;altitude;pressure_sealevel;temperature;humidity
12722;BME280;6425;50.316;8.114;2023-05-24T00:00:00;996;;;8.9;76.3
12722;BME280;6425;50.316;8.114;2023-05-24T00:03:00;996;;;9;75.9
12722;BME280;6425;50.316;8.114;2023-05-24T00:06:00;996;;;9;75.8
12722;BME280;6425;50.316;8.114;2023-05-24T00:09:00;996;;;9.1;75.1
12722;BME280;6425;50.316;8.114;2023-05-24T00:12:00;996;;;8.9;75.5
12722;BME280;6425;50.316;8.114;2023-05-24T00:15:00;996;;;8.7;76.5
12722;BME280;6425;50.316;8.114;2023-05-24T00:18:00;996;;;8.7;75.8
12722;BME280;6425;50.316;8.114;2023-05-24T00:21:00;996;;;8.7;75.3
12722;BME280;6425;50.316;8.114;2023-05-24T00:24:00;996;;;8.8;75.6
12722;BME280;6425;50.316;8.114;2023-05-24T00:27:00;996;;;8.7;76.2
12722;BME280;6425;50.316;8.114;2023-05-24T00:30:00;996;;;8.6;76.4
12722;BME280;6425;50.316;8.114;2023-05-24T00:33:00;996;;;8.6;76.7
12722;BME280;6425;50.316;8.114;2023-05-24T00:36:00;996;;;8.4;77.5
12722;BME280;6425;50.316;8.114;2023-05-24T00:39:00;996;;;8.3;77.9
12722;BME280;6425;50.316;8.114;2023-05-24T00:42:00;996;;;8.3;78.5
12722;BME280;6425;50.316;8.114;2023-05-24T00:45:00;996;;;8.2;78.8
12722;BME280;6425;50.316;8.114;2023-05-24T00:48:00;996;;;8.2;79.2
12722;BME280;6425;50.316;8.114;2023-05-24T00:51:00;996;;;8.2;78.8
12722;BME280;6425;50.316;8.114;2023-05-24T00:54:00;996;;;8.3;78.7
12722;BME280;6425;50.316;8.114;2023-05-24T00:57:00;996;;;8.4;78.1
12722;BME280;6425;50.316;8.114;2023-05-24T01:00:00;996;;;8.4;78.1
12722;BME280;6425;50.316;8.114;2023-05-24T01:03:00;996;;;8.4;77.8
12722;BME280;6425;50.316;8.114;2023-05-24T01:06:01;996;;;8.3;78.5
12722;BME280;6425;50.316;8.114;2023-05-24T01:09:02;996;;;8.4;78.1
12722;BME280;6425;50.316;8.114;2023-05-24T01:12:04;996;;;8.3;78.1
12722;BME280;6425;50.316;8.114;2023-05-24T01:15:03;996;;;8.3;78.3
12722;BME280;6425;50.316;8.114;2023-05-24T01:18:01;996;;;8.1;78.9
12722;BME280;6425;50.316;8.114;2023-05-24T01:21:04;996;;;8.2;79
12722;BME280;6425;50.316;8.114;2023-05-24T01:24:02;996;;;8.3;79.2
12722;BME280;6425;50.316;8.114;2023-05-24T01:27:03;996;;;8.4;79
12722;BME280;6425;50.316;8.114;2023-05-24T01:30:00;996;;;8.4;77.9
12722;BME280;6425;50.316;8.114;2023-05-24T01:33:00;996;;;8.4;78.4
12722;BME280;6425;50.316;8.114;2023-05-24T01:36:00;996;;;8.4;77.9
12722;BME280;6425;50.316;8.114;2023-05-24T01:39:00;996;;;8.4;77.5
12722;BME280;6425;50.316;8.114;2023-05-24T01:42:03;996;;;8.4;77.7
12722;BME280;6425;50.316;8.114;2023-05-24T01:45:03;996;;;8.4;77.7
12722;BME280;6425;50.316;8.114;2023-05-24T01:48:00;996;;;8.4;78.3
12722;BME280;6425;50.316;8.114;2023-05-24T01:51:00;996;;;8.6;77.8
12722;BME280;6425;50.316;8.114;2023-05-24T01:54:00;996;;;8.4;78
12722;BME280;6425;50.316;8.114;2023-05-24T01:57:00;996;;;7.9;79.2
12722;BME280;6425;50.316;8.114;2023-05-24T02:00:00;996;;;8;80.3
12722;BME280;6425;50.316;8.114;2023-05-24T02:03:00;996;;;8.1;79.1
12722;BME280;6425;50.316;8.114;2023-05-24T02:06:00;996;;;8.2;78.9
12722;BME280;6425;50.316;8.114;2023-05-24T02:09:00;996;;;8.2;78.4
12722;BME280;6425;50.316;8.114;2023-05-24T02:12:00;996;;;8.2;78.1
12722;BME280;6425;50.316;8.114;2023-05-24T02:15:00;996;;;8.1;77.8
12722;BME280;6425;50.316;8.114;2023-05-24T02:18:00;996;;;8.2;78.1
12722;BME280;6425;50.316;8.114;2023-05-24T02:21:00;996;;;8;77.9
12722;BME280;6425;50.316;8.114;2023-05-24T02:24:00;996;;;7.8;78.9
12722;BME280;6425;50.316;8.114;2023-05-24T02:27:00;996;;;7.7;78.6
12722;BME280;6425;50.316;8.114;2023-05-24T02:30:00;996;;;7.5;79
12722;BME280;6425;50.316;8.114;2023-05-24T02:33:00;996;;;7.5;79.4
12722;BME280;6425;50.316;8.114;2023-05-24T02:36:00;996;;;7.4;79
12722;BME280;6425;50.316;8.114;2023-05-24T02:39:00;996;;;7.4;79.4
12722;BME280;6425;50.316;8.114;2023-05-24T02:42:00;996;;;7.4;79.2
12722;BME280;6425;50.316;8.114;2023-05-24T02:45:00;996;;;7.3;79.2
12722;BME280;6425;50.316;8.114;2023-05-24T02:48:00;996;;;7.3;79.5
12722;BME280;6425;50.316;8.114;2023-05-24T02:51:00;996;;;7.3;79.1
12722;BME280;6425;50.316;8.114;2023-05-24T02:54:00;996;;;7.3;78.9
12722;BME280;6425;50.316;8.114;2023-05-24T02:57:00;996;;;7.5;78.3
12722;BME280;6425;50.316;8.114;2023-05-24T03:00:00;996;;;7.3;78.3
12722;BME280;6425;50.316;8.114;2023-05-24T03:03:00;996;;;7.3;78.2
12722;BME280;6425;50.316;8.114;2023-05-24T03:06:00;996;;;7.2;78.5
12722;BME280;6425;50.316;8.114;2023-05-24T03:09:00;996;;;7;78.9
12722;BME280;6425;50.316;8.114;2023-05-24T03:12:00;996;;;7;79
12722;BME280;6425;50.316;8.114;2023-05-24T03:15:00;996;;;6.8;79.3
12722;BME280;6425;50.316;8.114;2023-05-24T03:18:00;995;;;6.5;80.4
12722;BME280;6425;50.316;8.114;2023-05-24T03:21:00;996;;;6.2;81.6
12722;BME280;6425;50.316;8.114;2023-05-24T03:24:00;996;;;5.9;83.2
12722;BME280;6425;50.316;8.114;2023-05-24T03:27:00;995;;;5.9;84.1
12722;BME280;6425;50.316;8.114;2023-05-24T03:30:00;995;;;6.1;83.9
12722;BME280;6425;50.316;8.114;2023-05-24T03:33:00;996;;;6.2;82.8
12722;BME280;6425;50.316;8.114;2023-05-24T03:36:00;995;;;6.2;82
12722;BME280;6425;50.316;8.114;2023-05-24T03:39:00;995;;;6.2;81.6
12722;BME280;6425;50.316;8.114;2023-05-24T03:42:00;995;;;6.1;81.4
12722;BME280;6425;50.316;8.114;2023-05-24T03:45:00;995;;;6.1;81.7
12722;BME280;6425;50.316;8.114;2023-05-24T03:48:00;995;;;6;81.5
12722;BME280;6425;50.316;8.114;2023-05-24T03:51:00;995;;;6.2;81.5
12722;BME280;6425;50.316;8.114;2023-05-24T03:54:00;996;;;6.2;81.1
12722;BME280;6425;50.316;8.114;2023-05-24T03:57:00;996;;;6.2;81.4
12722;BME280;6425;50.316;8.114;2023-05-24T04:00:00;996;;;6.3;81.5
12722;BME280;6425;50.316;8.114;2023-05-24T04:03:00;996;;;6.2;81
12722;BME280;6425;50.316;8.114;2023-05-24T04:06:00;996;;;6.3;81.4
12722;BME280;6425;50.316;8.114;2023-05-24T04:09:00;996;;;6.2;83
12722;BME280;6425;50.316;8.114;2023-05-24T04:12:00;996;;;6.4;81.6
12722;BME280;6425;50.316;8.114;2023-05-24T04:15:00;996;;;6.3;81.6
12722;BME280;6425;50.316;8.114;2023-05-24T04:18:00;996;;;6.3;82.5
12722;BME280;6425;50.316;8.114;2023-05-24T04:21:00;996;;;6.7;84
12722;BME280;6425;50.316;8.114;2023-05-24T04:24:00;996;;;7.3;81.5
12722;BME280;6425;50.316;8.114;2023-05-24T04:27:00;996;;;7.5;79.4
12722;BME280;6425;50.316;8.114;2023-05-24T04:30:00;996;;;7.7;78.8
12722;BME280;6425;50.316;8.114;2023-05-24T04:33:00;996;;;8.2;78.1
12722;BME280;6425;50.316;8.114;2023-05-24T04:36:00;996;;;8.5;77
12722;BME280;6425;50.316;8.114;2023-05-24T04:39:00;996;;;8.7;76.5
12722;BME280;6425;50.316;8.114;2023-05-24T04:42:00;996;;;9.1;72
12722;BME280;6425;50.316;8.114;2023-05-24T04:45:00;996;;;8.2;73.7
12722;BME280;6425;50.316;8.114;2023-05-24T04:48:00;996;;;8.5;75
12722;BME280;6425;50.316;8.114;2023-05-24T04:51:00;996;;;9.1;72.1
12722;BME280;6425;50.316;8.114;2023-05-24T04:54:00;996;;;8.4;73
12722;BME280;6425;50.316;8.114;2023-05-24T04:57:00;996;;;8;75.4
12722;BME280;6425;50.316;8.114;2023-05-24T05:00:00;996;;;7.4;78.7
12722;BME280;6425;50.316;8.114;2023-05-24T05:03:00;996;;;6.9;81.7
12722;BME280;6425;50.316;8.114;2023-05-24T05:06:00;996;;;6.4;83.3
12722;BME280;6425;50.316;8.114;2023-05-24T05:09:00;996;;;6.3;85.2
12722;BME280;6425;50.316;8.114;2023-05-24T05:12:00;996;;;6.7;85
12722;BME280;6425;50.316;8.114;2023-05-24T05:15:00;996;;;6.8;84.7
12722;BME280;6425;50.316;8.114;2023-05-24T05:18:00;996;;;7;83.6
12722;BME280;6425;50.316;8.114;2023-05-24T05:21:00;996;;;7.5;82.9
12722;BME280;6425;50.316;8.114;2023-05-24T05:24:00;996;;;9;78.5
12722;BME280;6425;50.316;8.114;2023-05-24T05:27:00;996;;;10.2;70.8
12722;BME280;6425;50.316;8.114;2023-05-24T05:30:00;996;;;10.4;66.4
12722;BME280;6425;50.316;8.114;2023-05-24T05:33:00;996;;;9.8;68.3
12722;BME280;6425;50.316;8.114;2023-05-24T05:36:00;996;;;10;68.1
12722;BME280;6425;50.316;8.114;2023-05-24T05:39:00;996;;;10;67.5
12722;BME280;6425;50.316;8.114;2023-05-24T05:42:00;996;;;9.3;69
12722;BME280;6425;50.316;8.114;2023-05-24T05:45:00;996;;;9.6;69.6
12722;BME280;6425;50.316;8.114;2023-05-24T05:48:00;996;;;9.4;70.5
12722;BME280;6425;50.316;8.114;2023-05-24T05:51:00;996;;;9.9;69.2
12722;BME280;6425;50.316;8.114;2023-05-24T05:54:00;996;;;9.7;68.6
12722;BME280;6425;50.316;8.114;2023-05-24T05:57:00;997;;;9.2;68.4
12722;BME280;6425;50.316;8.114;2023-05-24T06:00:00;997;;;8.5;70.7
12722;BME280;6425;50.316;8.114;2023-05-24T06:03:00;996;;;8.8;72.3
12722;BME280;6425;50.316;8.114;2023-05-24T06:06:00;997;;;9.2;71.5
12722;BME280;6425;50.316;8.114;2023-05-24T06:09:00;997;;;9.2;71.2
12722;BME280;6425;50.316;8.114;2023-05-24T06:12:00;996;;;9.5;70.3
12722;BME280;6425;50.316;8.114;2023-05-24T06:15:00;997;;;10;67.8
12722;BME280;6425;50.316;8.114;2023-05-24T06:18:00;996;;;9.3;68.7
12722;BME280;6425;50.316;8.114;2023-05-24T06:21:00;996;;;9.6;68.9
12722;BME280;6425;50.316;8.114;2023-05-24T06:24:00;996;;;9.6;67.6
12722;BME280;6425;50.316;8.114;2023-05-24T06:27:00;996;;;9.6;68.6
12722;BME280;6425;50.316;8.114;2023-05-24T06:30:00;996;;;9.9;66.7
12722;BME280;6425;50.316;8.114;2023-05-24T06:33:00;996;;;10.1;66.5
12722;BME280;6425;50.316;8.114;2023-05-24T06:36:00;996;;;9.7;67.9
12722;BME280;6425;50.316;8.114;2023-05-24T06:39:00;996;;;10.1;65.5
12722;BME280;6425;50.316;8.114;2023-05-24T06:42:00;996;;;10.8;62.9
12722;BME280;6425;50.316;8.114;2023-05-24T06:45:00;996;;;10.4;63.1
12722;BME280;6425;50.316;8.114;2023-05-24T06:48:00;996;;;10.4;63.3
12722;BME280;6425;50.316;8.114;2023-05-24T06:51:00;996;;;10.7;62.2
12722;BME280;6425;50.316;8.114;2023-05-24T06:54:00;996;;;11;61.9
12722;BME280;6425;50.316;8.114;2023-05-24T06:57:00;996;;;11.5;61.1
12722;BME280;6425;50.316;8.114;2023-05-24T07:00:00;996;;;12.7;57.2
12722;BME280;6425;50.316;8.114;2023-05-24T07:03:00;996;;;13;54.6
12722;BME280;6425;50.316;8.114;2023-05-24T07:06:00;996;;;10.6;59.4
12722;BME280;6425;50.316;8.114;2023-05-24T07:09:00;996;;;9.7;62.4
12722;BME280;6425;50.316;8.114;2023-05-24T07:12:00;996;;;9.6;64.5
12722;BME280;6425;50.316;8.114;2023-05-24T07:15:00;997;;;10;62.6
12722;BME280;6425;50.316;8.114;2023-05-24T07:18:00;997;;;10.3;62.1
12722;BME280;6425;50.316;8.114;2023-05-24T07:21:00;997;;;10.9;61.4
12722;BME280;6425;50.316;8.114;2023-05-24T07:24:00;997;;;10.9;61.1
12722;BME280;6425;50.316;8.114;2023-05-24T07:27:00;997;;;10.7;62.3
12722;BME280;6425;50.316;8.114;2023-05-24T07:30:00;997;;;10.6;62
12722;BME280;6425;50.316;8.114;2023-05-24T07:33:00;997;;;10.5;62.5
12722;BME280;6425;50.316;8.114;2023-05-24T07:36:00;997;;;10.1;63.5
12722;BME280;6425;50.316;8.114;2023-05-24T07:39:00;997;;;10.6;62.8
12722;BME280;6425;50.316;8.114;2023-05-24T07:42:00;997;;;10.6;62.4
12722;BME280;6425;50.316;8.114;2023-05-24T07:45:00;997;;;10.8;61.9
12722;BME280;6425;50.316;8.114;2023-05-24T07:48:00;997;;;11.4;59
12722;BME280;6425;50.316;8.114;2023-05-24T07:51:00;997;;;11.5;59.1
12722;BME280;6425;50.316;8.114;2023-05-24T07:54:00;997;;;11.8;58.8
12722;BME280;6425;50.316;8.114;2023-05-24T07:57:00;997;;;11.1;59.5
12722;BME280;6425;50.316;8.114;2023-05-24T08:00:00;997;;;10.8;60.3
12722;BME280;6425;50.316;8.114;2023-05-24T08:03:00;997;;;10.4;60
12722;BME280;6425;50.316;8.114;2023-05-24T08:06:00;997;;;10;62.6
12722;BME280;6425;50.316;8.114;2023-05-24T08:09:00;997;;;10.4;61.6
12722;BME280;6425;50.316;8.114;2023-05-24T08:12:00;997;;;10.5;61.1
12722;BME280;6425;50.316;8.114;2023-05-24T08:15:00;997;;;10.3;61.4
12722;BME280;6425;50.316;8.114;2023-05-24T08:18:00;997;;;10.5;62.1
12722;BME280;6425;50.316;8.114;2023-05-24T08:21:00;997;;;10.6;60.5
12722;BME280;6425;50.316;8.114;2023-05-24T08:24:00;997;;;10.8;59
12722;BME280;6425;50.316;8.114;2023-05-24T08:27:00;997;;;10.6;60.9
12722;BME280;6425;50.316;8.114;2023-05-24T08:30:00;997;;;11.3;58.6
12722;BME280;6425;50.316;8.114;2023-05-24T08:33:00;997;;;11.5;56.8
12722;BME280;6425;50.316;8.114;2023-05-24T08:36:00;997;;;11.8;57.1
12722;BME280;6425;50.316;8.114;2023-05-24T08:39:00;997;;;11.3;57.4
12722;BME280;6425;50.316;8.114;2023-05-24T08:42:01;997;;;12.2;55.5
12722;BME280;6425;50.316;8.114;2023-05-24T08:45:02;997;;;11.9;55.5
12722;BME280;6425;50.316;8.114;2023-05-24T08:48:00;997;;;12;55.9
12722;BME280;6425;50.316;8.114;2023-05-24T08:51:00;997;;;12.6;54
12722;BME280;6425;50.316;8.114;2023-05-24T08:54:00;997;;;12.2;54.3
12722;BME280;6425;50.316;8.114;2023-05-24T08:57:00;997;;;11.6;55.8
12722;BME280;6425;50.316;8.114;2023-05-24T09:00:00;997;;;11.2;57
12722;BME280;6425;50.316;8.114;2023-05-24T09:03:00;997;;;11.1;57.9
12722;BME280;6425;50.316;8.114;2023-05-24T09:06:00;997;;;11.4;57.4
12722;BME280;6425;50.316;8.114;2023-05-24T09:09:00;997;;;12.6;55
12722;BME280;6425;50.316;8.114;2023-05-24T09:12:01;997;;;14;50.4
12722;BME280;6425;50.316;8.114;2023-05-24T09:15:00;997;;;12.9;51.5
12722;BME280;6425;50.316;8.114;2023-05-24T09:18:00;997;;;12;53.9
12722;BME280;6425;50.316;8.114;2023-05-24T09:21:00;997;;;10.9;56.6
12722;BME280;6425;50.316;8.114;2023-05-24T09:24:00;997;;;11.3;57.2
12722;BME280;6425;50.316;8.114;2023-05-24T09:27:03;997;;;11.9;55.3
12722;BME280;6425;50.316;8.114;2023-05-24T09:30:00;996;;;11.9;55
12722;BME280;6425;50.316;8.114;2023-05-24T09:33:00;997;;;12.2;54.7
12722;BME280;6425;50.316;8.114;2023-05-24T09:36:00;996;;;12.5;53.2
12722;BME280;6425;50.316;8.114;2023-05-24T09:39:04;996;;;12.2;52.8
12722;BME280;6425;50.316;8.114;2023-05-24T09:42:00;996;;;12.9;51.3
12722;BME280;6425;50.316;8.114;2023-05-24T09:45:00;996;;;13.4;50.8
12722;BME280;6425;50.316;8.114;2023-05-24T09:48:02;996;;;13.7;49.4
12722;BME280;6425;50.316;8.114;2023-05-24T09:51:02;996;;;13.5;49.8
12722;BME280;6425;50.316;8.114;2023-05-24T09:54:00;996;;;13.1;49.2
12722;BME280;6425;50.316;8.114;2023-05-24T09:57:00;996;;;13;49.8
12722;BME280;6425;50.316;8.114;2023-05-24T10:00:02;996;;;13.2;49.8
12722;BME280;6425;50.316;8.114;2023-05-24T10:03:00;996;;;13.9;49.4
12722;BME280;6425;50.316;8.114;2023-05-24T10:06:00;996;;;14.5;47.6
12722;BME280;6425;50.316;8.114;2023-05-24T10:09:00;996;;;14.5;47.5
12722;BME280;6425;50.316;8.114;2023-05-24T10:12:00;996;;;13.9;48.1
12722;BME280;6425;50.316;8.114;2023-05-24T10:15:00;996;;;13.4;50
12722;BME280;6425;50.316;8.114;2023-05-24T10:18:00;996;;;13.5;49
12722;BME280;6425;50.316;8.114;2023-05-24T10:21:00;996;;;14.2;48.5
12722;BME280;6425;50.316;8.114;2023-05-24T10:24:00;996;;;13.7;49.1
12722;BME280;6425;50.316;8.114;2023-05-24T10:27:00;996;;;13.6;49.1
12722;BME280;6425;50.316;8.114;2023-05-24T10:30:00;996;;;14.5;47.8
12722;BME280;6425;50.316;8.114;2023-05-24T10:33:00;996;;;14.4;47.6
12722;BME280;6425;50.316;8.114;2023-05-24T10:36:00;996;;;14;48.8
12722;BME280;6425;50.316;8.114;2023-05-24T10:39:00;996;;;14.3;49.4
12722;BME280;6425;50.316;8.114;2023-05-24T10:42:00;996;;;13.9;49
12722;BME280;6425;50.316;8.114;2023-05-24T10:45:01;996;;;14.3;48.7
12722;BME280;6425;50.316;8.114;2023-05-24T10:48:00;996;;;14.5;48.2
12722;BME280;6425;50.316;8.114;2023-05-24T10:51:00;996;;;14.9;47.1
12722;BME280;6425;50.316;8.114;2023-05-24T10:54:09;996;;;14.5;46.2
12722;BME280;6425;50.316;8.114;2023-05-24T10:57:00;996;;;14.6;46.2
12722;BME280;6425;50.316;8.114;2023-05-24T11:00:24;996;;;14.4;47.6
12722;BME280;6425;50.316;8.114;2023-05-24T11:03:00;996;;;13.4;51.1
12722;BME280;6425;50.316;8.114;2023-05-24T11:06:00;996;;;13.5;50.7
12722;BME280;6425;50.316;8.114;2023-05-24T11:09:00;996;;;13.5;51.6
12722;BME280;6425;50.316;8.114;2023-05-24T11:12:00;996;;;13.7;50.2
12722;BME280;6425;50.316;8.114;2023-05-24T11:15:00;996;;;14.1;49.6
12722;BME280;6425;50.316;8.114;2023-05-24T11:18:15;996;;;14.2;48.4
12722;BME280;6425;50.316;8.114;2023-05-24T11:21:00;996;;;13.3;50.5
12722;BME280;6425;50.316;8.114;2023-05-24T11:24:00;996;;;13.5;49.1
12722;BME280;6425;50.316;8.114;2023-05-24T11:27:00;996;;;13.7;49.2
12722;BME280;6425;50.316;8.114;2023-05-24T11:30:00;996;;;14.3;49.2
12722;BME280;6425;50.316;8.114;2023-05-24T11:33:00;996;;;14.6;46
12722;BME280;6425;50.316;8.114;2023-05-24T11:36:00;996;;;14.1;47.3
12722;BME280;6425;50.316;8.114;2023-05-24T11:39:00;996;;;14.8;46.3
12722;BME280;6425;50.316;8.114;2023-05-24T11:42:00;996;;;14.7;47.4
12722;BME280;6425;50.316;8.114;2023-05-24T11:45:00;996;;;14.3;47.4
12722;BME280;6425;50.316;8.114;2023-05-24T11:48:02;996;;;14.1;47.9
12722;BME280;6425;50.316;8.114;2023-05-24T11:51:00;996;;;13.8;50.6
12722;BME280;6425;50.316;8.114;2023-05-24T11:54:00;996;;;14.3;49.5
12722;BME280;6425;50.316;8.114;2023-05-24T11:57:00;996;;;14.5;47.6
12722;BME280;6425;50.316;8.114;2023-05-24T12:00:00;996;;;14.2;47.6
12722;BME280;6425;50.316;8.114;2023-05-24T12:03:00;996;;;14.1;46.9
12722;BME280;6425;50.316;8.114;2023-05-24T12:06:00;996;;;14.1;48.9
12722;BME280;6425;50.316;8.114;2023-05-24T12:09:00;996;;;13.8;49.8
12722;BME280;6425;50.316;8.114;2023-05-24T12:12:00;996;;;13.9;48.1
12722;BME280;6425;50.316;8.114;2023-05-24T12:15:00;996;;;13.7;50.1
12722;BME280;6425;50.316;8.114;2023-05-24T12:18:00;996;;;13.6;49.7
12722;BME280;6425;50.316;8.114;2023-05-24T12:21:00;996;;;13;50.6
12722;BME280;6425;50.316;8.114;2023-05-24T12:24:03;996;;;13.1;51.4
12722;BME280;6425;50.316;8.114;2023-05-24T12:27:00;996;;;13.4;51.5
12722;BME280;6425;50.316;8.114;2023-05-24T12:30:04;996;;;13.6;51.7
12722;BME280;6425;50.316;8.114;2023-05-24T12:33:00;996;;;13.4;50.2
12722;BME280;6425;50.316;8.114;2023-05-24T12:36:00;996;;;13.4;50.2
12722;BME280;6425;50.316;8.114;2023-05-24T12:39:03;996;;;13.5;52
12722;BME280;6425;50.316;8.114;2023-05-24T12:42:00;996;;;13.2;52
12722;BME280;6425;50.316;8.114;2023-05-24T12:45:00;996;;;13.5;50.1
12722;BME280;6425;50.316;8.114;2023-05-24T12:48:00;996;;;13.6;51.1
12722;BME280;6425;50.316;8.114;2023-05-24T12:51:00;996;;;13.6;50.1
12722;BME280;6425;50.316;8.114;2023-05-24T12:54:00;996;;;13.4;51.1
12722;BME280;6425;50.316;8.114;2023-05-24T12:57:00;996;;;13.4;50.5
12722;BME280;6425;50.316;8.114;2023-05-24T13:00:00;996;;;13.4;49.2
12722;BME280;6425;50.316;8.114;2023-05-24T13:03:00;996;;;13.4;50
12722;BME280;6425;50.316;8.114;2023-05-24T13:06:00;996;;;13.3;50.8
12722;BME280;6425;50.316;8.114;2023-05-24T13:09:00;996;;;13.8;50
12722;BME280;6425;50.316;8.114;2023-05-24T13:12:00;996;;;13.8;49.8
12722;BME280;6425;50.316;8.114;2023-05-24T13:15:00;996;;;13.4;50.3
12722;BME280;6425;50.316;8.114;2023-05-24T13:18:00;996;;;13.5;50.4
12722;BME280;6425;50.316;8.114;2023-05-24T13:21:00;996;;;13.4;49.6
12722;BME280;6425;50.316;8.114;2023-05-24T13:24:00;996;;;13.1;51.4
12722;BME280;6425;50.316;8.114;2023-05-24T13:27:00;996;;;13.4;50.3
12722;BME280;6425;50.316;8.114;2023-05-24T13:30:00;996;;;13.5;50.8
12722;BME280;6425;50.316;8.114;2023-05-24T13:33:00;996;;;13.7;50.9
12722;BME280;6425;50.316;8.114;2023-05-24T13:36:00;996;;;13.7;50.8
12722;BME280;6425;50.316;8.114;2023-05-24T13:39:00;996;;;13.8;49.8
12722;BME280;6425;50.316;8.114;2023-05-24T13:42:00;996;;;13.7;49.8
12722;BME280;6425;50.316;8.114;2023-05-24T13:45:00;996;;;13.8;49.8
12722;BME280;6425;50.316;8.114;2023-05-24T13:48:00;996;;;13.5;50.3
12722;BME280;6425;50.316;8.114;2023-05-24T13:51:00;996;;;13.8;50.1
12722;BME280;6425;50.316;8.114;2023-05-24T13:54:00;996;;;13.7;50.1
12722;BME280;6425;50.316;8.114;2023-05-24T13:57:00;996;;;14;48.1
12722;BME280;6425;50.316;8.114;2023-05-24T14:00:00;995;;;13.9;48.7
12722;BME280;6425;50.316;8.114;2023-05-24T14:03:00;996;;;13.8;49.1
12722;BME280;6425;50.316;8.114;2023-05-24T14:06:00;996;;;13.9;47.9
12722;BME280;6425;50.316;8.114;2023-05-24T14:09:00;996;;;13.7;47.8
12722;BME280;6425;50.316;8.114;2023-05-24T14:12:00;996;;;13.7;48.9
12722;BME280;6425;50.316;8.114;2023-05-24T14:15:00;996;;;13.9;49.2
12722;BME280;6425;50.316;8.114;2023-05-24T14:18:00;996;;;14.3;48.3
12722;BME280;6425;50.316;8.114;2023-05-24T14:21:00;996;;;14.4;47
12722;BME280;6425;50.316;8.114;2023-05-24T14:24:00;996;;;14.1;46.2
12722;BME280;6425;50.316;8.114;2023-05-24T14:27:00;996;;;13.8;48.2
12722;BME280;6425;50.316;8.114;2023-05-24T14:30:00;996;;;13.9;47.1
12722;BME280;6425;50.316;8.114;2023-05-24T14:33:00;996;;;14.3;45.9
12722;BME280;6425;50.316;8.114;2023-05-24T14:36:00;996;;;14.4;43.5
12722;BME280;6425;50.316;8.114;2023-05-24T14:39:00;996;;;14.8;44.1
12722;BME280;6425;50.316;8.114;2023-05-24T14:42:00;995;;;14.9;43.6
12722;BME280;6425;50.316;8.114;2023-05-24T14:45:00;995;;;15;42.9
12722;BME280;6425;50.316;8.114;2023-05-24T14:48:00;995;;;14.6;43.6
12722;BME280;6425;50.316;8.114;2023-05-24T14:51:00;995;;;15;44
12722;BME280;6425;50.316;8.114;2023-05-24T14:54:00;995;;;15.2;43.4
12722;BME280;6425;50.316;8.114;2023-05-24T14:57:00;995;;;14.7;44.2
12722;BME280;6425;50.316;8.114;2023-05-24T15:00:00;995;;;14.5;45.6
12722;BME280;6425;50.316;8.114;2023-05-24T15:03:00;995;;;14.8;45.6
12722;BME280;6425;50.316;8.114;2023-05-24T15:06:00;995;;;14.6;45.5
12722;BME280;6425;50.316;8.114;2023-05-24T15:09:00;995;;;14.9;44
12722;BME280;6425;50.316;8.114;2023-05-24T15:12:00;995;;;14.7;45.6
12722;BME280;6425;50.316;8.114;2023-05-24T15:15:00;995;;;14.7;46.4
12722;BME280;6425;50.316;8.114;2023-05-24T15:18:00;995;;;15.1;45.6
12722;BME280;6425;50.316;8.114;2023-05-24T15:21:00;995;;;14.9;45.6
12722;BME280;6425;50.316;8.114;2023-05-24T15:24:00;995;;;14.4;46.9
12722;BME280;6425;50.316;8.114;2023-05-24T15:27:00;995;;;14.4;48.1
12722;BME280;6425;50.316;8.114;2023-05-24T15:30:00;995;;;14.3;47.9
12722;BME280;6425;50.316;8.114;2023-05-24T15:33:00;995;;;14.4;47.5
12722;BME280;6425;50.316;8.114;2023-05-24T15:36:00;995;;;14.3;49.4
12722;BME280;6425;50.316;8.114;2023-05-24T15:39:00;995;;;14;49.1
12722;BME280;6425;50.316;8.114;2023-05-24T15:42:00;995;;;13.9;49.6
12722;BME280;6425;50.316;8.114;2023-05-24T15:45:00;995;;;13.9;49
12722;BME280;6425;50.316;8.114;2023-05-24T15:48:00;995;;;14.1;49
12722;BME280;6425;50.316;8.114;2023-05-24T15:51:00;995;;;14.1;48.6
12722;BME280;6425;50.316;8.114;2023-05-24T15:54:00;995;;;13.9;49.6
12722;BME280;6425;50.316;8.114;2023-05-24T15:57:00;995;;;13.9;49.9
12722;BME280;6425;50.316;8.114;2023-05-24T16:00:00;995;;;13.6;49.3
12722;BME280;6425;50.316;8.114;2023-05-24T16:03:00;996;;;13.4;50.2
12722;BME280;6425;50.316;8.114;2023-05-24T16:06:00;995;;;13.8;50.3
12722;BME280;6425;50.316;8.114;2023-05-24T16:09:00;995;;;14.1;49.8
12722;BME280;6425;50.316;8.114;2023-05-24T16:12:00;995;;;14.6;48.3
12722;BME280;6425;50.316;8.114;2023-05-24T16:15:00;995;;;14.7;46.9
12722;BME280;6425;50.316;8.114;2023-05-24T16:18:00;995;;;14.3;47.8
12722;BME280;6425;50.316;8.114;2023-05-24T16:21:00;995;;;14.3;47.8
12722;BME280;6425;50.316;8.114;2023-05-24T16:24:00;995;;;14.6;47.4
12722;BME280;6425;50.316;8.114;2023-05-24T16:27:00;995;;;15;46.5
12722;BME280;6425;50.316;8.114;2023-05-24T16:30:00;995;;;15.1;46
12722;BME280;6425;50.316;8.114;2023-05-24T16:33:00;995;;;14.9;47
12722;BME280;6425;50.316;8.114;2023-05-24T16:36:00;995;;;14.3;47.1
12722;BME280;6425;50.316;8.114;2023-05-24T16:39:00;995;;;14;48.8
12722;BME280;6425;50.316;8.114;2023-05-24T16:42:00;995;;;14.1;49.5
12722;BME280;6425;50.316;8.114;2023-05-24T16:45:00;995;;;14.1;48.4
12722;BME280;6425;50.316;8.114;2023-05-24T16:48:00;995;;;14.3;48.2
12722;BME280;6425;50.316;8.114;2023-05-24T16:51:00;995;;;14.5;48.1
12722;BME280;6425;50.316;8.114;2023-05-24T16:54:00;995;;;14.7;48.2
12722;BME280;6425;50.316;8.114;2023-05-24T16:57:00;995;;;14.9;48.1
12722;BME280;6425;50.316;8.114;2023-05-24T17:00:00;995;;;14.7;48.7
12722;BME280;6425;50.316;8.114;2023-05-24T17:03:00;995;;;14.7;48.9
12722;BME280;6425;50.316;8.114;2023-05-24T17:06:00;995;;;14.6;49.3
12722;BME280;6425;50.316;8.114;2023-05-24T17:09:00;995;;;14.8;48.6
12722;BME280;6425;50.316;8.114;2023-05-24T17:12:00;995;;;14.9;48.6
12722;BME280;6425;50.316;8.114;2023-05-24T17:15:00;995;;;14.8;48.6
12722;BME280;6425;50.316;8.114;2023-05-24T17:18:00;995;;;14.5;50.5
12722;BME280;6425;50.316;8.114;2023-05-24T17:21:00;995;;;14.9;49.9
12722;BME280;6425;50.316;8.114;2023-05-24T17:24:00;995;;;14.8;50.2
12722;BME280;6425;50.316;8.114;2023-05-24T17:27:00;995;;;14.7;51
12722;BME280;6425;50.316;8.114;2023-05-24T17:30:00;995;;;14.7;50.1
12722;BME280;6425;50.316;8.114;2023-05-24T17:33:00;995;;;15;50.2
12722;BME280;6425;50.316;8.114;2023-05-24T17:36:00;995;;;14.6;50.5
12722;BME280;6425;50.316;8.114;2023-05-24T17:39:00;995;;;14.5;51
12722;BME280;6425;50.316;8.114;2023-05-24T17:42:00;995;;;14.6;50.4
12722;BME280;6425;50.316;8.114;2023-05-24T17:45:00;995;;;14.5;50.7
12722;BME280;6425;50.316;8.114;2023-05-24T17:48:00;995;;;14.8;50.3
12722;BME280;6425;50.316;8.114;2023-05-24T17:51:00;995;;;14.4;50.3
12722;BME280;6425;50.316;8.114;2023-05-24T17:54:00;995;;;14.3;51.6
12722;BME280;6425;50.316;8.114;2023-05-24T17:57:00;995;;;14.3;51.3